sensor_id;sensor_type;location;lat;lon;timestamp;P1;durP1;ratioP1;P2;durP2;ratioP2
74064;SDS011;62421;51.412;5.432;2022-09-27T00:01:31;10.03;;;3.37;;
74064;SDS011;62421;51.412;5.432;2022-09-27T00:03:56;17.07;;;3.43;;
74064;SDS011;62421;51.412;5.432;2022-09-27T00:06:26;18.33;;;4.13;;
74064;SDS011;62421;51.412;5.432;2022-09-27T00:08:54;12.88;;;3.47;;
74064;SDS011;62421;51.412;5.432;2022-09-27T00:11:33;11.40;;;4.22;;
74064;SDS011;62421;51.412;5.432;2022-09-27T00:14:00;11.03;;;4.00;;
74064;SDS011;62421;51.412;5.432;2022-09-27T00:16:27;13.77;;;3.22;;
74064;SDS011;62421;51.412;5.432;2022-09-27T00:18:58;9.77;;;3.67;;
74064;SDS011;62421;51.412;5.432;2022-09-27T00:21:25;9.30;;;2.60;;
74064;SDS011;62421;51.412;5.432;2022-09-27T00:23:50;15.90;;;4.63;;
74064;SDS011;62421;51.412;5.432;2022-09-27T00:26:15;7.43;;;2.70;;
74064;SDS011;62421;51.412;5.432;2022-09-27T00:28:41;14.23;;;4.87;;
74064;SDS011;62421;51.412;5.432;2022-09-27T00:31:12;13.73;;;3.53;;
74064;SDS011;62421;51.412;5.432;2022-09-27T00:33:41;12.97;;;3.83;;
74064;SDS011;62421;51.412;5.432;2022-09-27T00:36:06;11.68;;;2.53;;
74064;SDS011;62421;51.412;5.432;2022-09-27T00:38:32;11.97;;;2.53;;
74064;SDS011;62421;51.412;5.432;2022-09-27T00:40:57;12.73;;;2.80;;
74064;SDS011;62421;51.412;5.432;2022-09-27T00:43:22;9.83;;;3.43;;
74064;SDS011;62421;51.412;5.432;2022-09-27T00:45:52;8.57;;;2.50;;
74064;SDS011;62421;51.412;5.432;2022-09-27T00:48:22;7.90;;;2.15;;
74064;SDS011;62421;51.412;5.432;2022-09-27T00:50:51;14.50;;;2.00;;
74064;SDS011;62421;51.412;5.432;2022-09-27T00:53:21;8.00;;;2.20;;
74064;SDS011;62421;51.412;5.432;2022-09-27T00:55:52;7.90;;;2.30;;
74064;SDS011;62421;51.412;5.432;2022-09-27T00:58:23;7.50;;;2.35;;
74064;SDS011;62421;51.412;5.432;2022-09-27T01:00:55;10.10;;;2.65;;
74064;SDS011;62421;51.412;5.432;2022-09-27T01:03:25;8.77;;;2.75;;
74064;SDS011;62421;51.412;5.432;2022-09-27T01:05:58;6.82;;;2.78;;
74064;SDS011;62421;51.412;5.432;2022-09-27T01:08:25;11.33;;;2.47;;
74064;SDS011;62421;51.412;5.432;2022-09-27T01:10:57;6.97;;;2.63;;
74064;SDS011;62421;51.412;5.432;2022-09-27T01:13:53;4.78;;;1.80;;
74064;SDS011;62421;51.412;5.432;2022-09-27T01:17:01;6.88;;;1.95;;
74064;SDS011;62421;51.412;5.432;2022-09-27T01:22:22;6.07;;;1.63;;
74064;SDS011;62421;51.412;5.432;2022-09-27T01:24:55;7.30;;;1.90;;
74064;SDS011;62421;51.412;5.432;2022-09-27T01:36:12;7.03;;;1.70;;
74064;SDS011;62421;51.412;5.432;2022-09-27T01:44:30;10.05;;;2.42;;
74064;SDS011;62421;51.412;5.432;2022-09-27T01:47:04;12.60;;;2.00;;
74064;SDS011;62421;51.412;5.432;2022-09-27T01:49:40;8.95;;;1.67;;
74064;SDS011;62421;51.412;5.432;2022-09-27T01:52:13;9.20;;;1.70;;
74064;SDS011;62421;51.412;5.432;2022-09-27T01:54:43;6.40;;;1.67;;
74064;SDS011;62421;51.412;5.432;2022-09-27T01:57:16;4.63;;;1.35;;
74064;SDS011;62421;51.412;5.432;2022-09-27T01:59:47;5.20;;;1.52;;
74064;SDS011;62421;51.412;5.432;2022-09-27T02:02:18;5.63;;;1.00;;
74064;SDS011;62421;51.412;5.432;2022-09-27T02:04:49;3.77;;;1.53;;
74064;SDS011;62421;51.412;5.432;2022-09-27T02:07:21;10.45;;;1.60;;
74064;SDS011;62421;51.412;5.432;2022-09-27T02:12:22;7.25;;;2.10;;
74064;SDS011;62421;51.412;5.432;2022-09-27T02:14:56;8.23;;;2.28;;
74064;SDS011;62421;51.412;5.432;2022-09-27T02:18:09;8.63;;;2.23;;
74064;SDS011;62421;51.412;5.432;2022-09-27T02:25:37;4.70;;;1.05;;
74064;SDS011;62421;51.412;5.432;2022-09-27T02:28:24;7.32;;;1.77;;
74064;SDS011;62421;51.412;5.432;2022-09-27T02:30:52;6.37;;;1.20;;
74064;SDS011;62421;51.412;5.432;2022-09-27T02:33:18;9.40;;;1.42;;
74064;SDS011;62421;51.412;5.432;2022-09-27T02:35:46;11.00;;;1.48;;
74064;SDS011;62421;51.412;5.432;2022-09-27T02:38:12;6.03;;;1.40;;
74064;SDS011;62421;51.412;5.432;2022-09-27T02:40:44;7.90;;;1.15;;
74064;SDS011;62421;51.412;5.432;2022-09-27T02:43:11;3.85;;;1.55;;
74064;SDS011;62421;51.412;5.432;2022-09-27T02:45:41;3.63;;;1.00;;
74064;SDS011;62421;51.412;5.432;2022-09-27T02:59:14;4.80;;;1.10;;
74064;SDS011;62421;51.412;5.432;2022-09-27T03:07:18;6.38;;;1.33;;
74064;SDS011;62421;51.412;5.432;2022-09-27T03:09:48;5.53;;;1.23;;
74064;SDS011;62421;51.412;5.432;2022-09-27T03:12:15;8.43;;;2.03;;
74064;SDS011;62421;51.412;5.432;2022-09-27T03:14:46;6.10;;;1.48;;
74064;SDS011;62421;51.412;5.432;2022-09-27T03:17:13;18.40;;;2.13;;
74064;SDS011;62421;51.412;5.432;2022-09-27T03:19:38;9.03;;;1.70;;
74064;SDS011;62421;51.412;5.432;2022-09-27T03:22:03;9.03;;;2.47;;
74064;SDS011;62421;51.412;5.432;2022-09-27T03:24:28;7.83;;;1.57;;
74064;SDS011;62421;51.412;5.432;2022-09-27T03:26:54;5.20;;;1.57;;
74064;SDS011;62421;51.412;5.432;2022-09-27T03:29:19;10.43;;;1.67;;
74064;SDS011;62421;51.412;5.432;2022-09-27T03:31:44;12.77;;;2.10;;
74064;SDS011;62421;51.412;5.432;2022-09-27T03:34:10;7.43;;;1.57;;
74064;SDS011;62421;51.412;5.432;2022-09-27T03:36:35;7.50;;;1.30;;
74064;SDS011;62421;51.412;5.432;2022-09-27T03:39:00;9.23;;;1.80;;
74064;SDS011;62421;51.412;5.432;2022-09-27T03:41:26;12.60;;;1.50;;
74064;SDS011;62421;51.412;5.432;2022-09-27T03:43:51;7.50;;;1.38;;
74064;SDS011;62421;51.412;5.432;2022-09-27T03:46:16;10.40;;;1.60;;
74064;SDS011;62421;51.412;5.432;2022-09-27T03:48:42;10.40;;;1.60;;
74064;SDS011;62421;51.412;5.432;2022-09-27T03:51:07;13.47;;;1.83;;
74064;SDS011;62421;51.412;5.432;2022-09-27T03:53:36;8.15;;;1.95;;
74064;SDS011;62421;51.412;5.432;2022-09-27T03:56:01;5.07;;;1.30;;
74064;SDS011;62421;51.412;5.432;2022-09-27T03:58:26;16.23;;;2.13;;
74064;SDS011;62421;51.412;5.432;2022-09-27T04:00:52;4.03;;;1.20;;
74064;SDS011;62421;51.412;5.432;2022-09-27T04:03:17;8.90;;;1.90;;
74064;SDS011;62421;51.412;5.432;2022-09-27T04:05:43;13.35;;;1.60;;
74064;SDS011;62421;51.412;5.432;2022-09-27T04:08:09;7.75;;;1.70;;
74064;SDS011;62421;51.412;5.432;2022-09-27T04:10:36;6.90;;;1.50;;
74064;SDS011;62421;51.412;5.432;2022-09-27T04:13:01;6.83;;;1.90;;
74064;SDS011;62421;51.412;5.432;2022-09-27T04:15:28;7.13;;;2.17;;
74064;SDS011;62421;51.412;5.432;2022-09-27T04:17:53;9.20;;;2.90;;
74064;SDS011;62421;51.412;5.432;2022-09-27T04:20:18;9.97;;;2.77;;
74064;SDS011;62421;51.412;5.432;2022-09-27T04:22:43;8.40;;;2.03;;
74064;SDS011;62421;51.412;5.432;2022-09-27T04:25:10;6.07;;;1.30;;
74064;SDS011;62421;51.412;5.432;2022-09-27T04:27:36;5.95;;;1.30;;
74064;SDS011;62421;51.412;5.432;2022-09-27T04:30:02;7.18;;;1.35;;
74064;SDS011;62421;51.412;5.432;2022-09-27T04:32:30;4.83;;;1.50;;
74064;SDS011;62421;51.412;5.432;2022-09-27T04:34:55;9.10;;;1.50;;
74064;SDS011;62421;51.412;5.432;2022-09-27T04:37:39;5.40;;;1.40;;
74064;SDS011;62421;51.412;5.432;2022-09-27T04:40:05;8.57;;;2.28;;
74064;SDS011;62421;51.412;5.432;2022-09-27T04:42:31;7.78;;;2.40;;
74064;SDS011;62421;51.412;5.432;2022-09-27T04:44:58;4.73;;;2.37;;
74064;SDS011;62421;51.412;5.432;2022-09-27T04:47:23;7.05;;;1.45;;
74064;SDS011;62421;51.412;5.432;2022-09-27T04:49:49;8.57;;;1.57;;
74064;SDS011;62421;51.412;5.432;2022-09-27T04:52:14;5.07;;;1.50;;
74064;SDS011;62421;51.412;5.432;2022-09-27T04:54:39;7.40;;;1.40;;
74064;SDS011;62421;51.412;5.432;2022-09-27T04:57:05;6.50;;;1.30;;
74064;SDS011;62421;51.412;5.432;2022-09-27T04:59:31;5.67;;;1.63;;
74064;SDS011;62421;51.412;5.432;2022-09-27T05:01:56;11.13;;;1.43;;
74064;SDS011;62421;51.412;5.432;2022-09-27T05:04:24;7.13;;;1.40;;
74064;SDS011;62421;51.412;5.432;2022-09-27T05:06:50;4.90;;;1.50;;
74064;SDS011;62421;51.412;5.432;2022-09-27T05:09:15;6.27;;;1.40;;
74064;SDS011;62421;51.412;5.432;2022-09-27T05:11:40;6.47;;;1.47;;
74064;SDS011;62421;51.412;5.432;2022-09-27T05:14:06;9.07;;;1.37;;
74064;SDS011;62421;51.412;5.432;2022-09-27T05:16:31;4.33;;;1.40;;
74064;SDS011;62421;51.412;5.432;2022-09-27T05:18:57;5.38;;;1.08;;
74064;SDS011;62421;51.412;5.432;2022-09-27T05:21:22;5.80;;;1.20;;
74064;SDS011;62421;51.412;5.432;2022-09-27T05:23:48;4.50;;;1.30;;
74064;SDS011;62421;51.412;5.432;2022-09-27T05:26:13;4.93;;;1.40;;
74064;SDS011;62421;51.412;5.432;2022-09-27T05:28:38;8.32;;;1.60;;
74064;SDS011;62421;51.412;5.432;2022-09-27T05:31:07;6.23;;;1.63;;
74064;SDS011;62421;51.412;5.432;2022-09-27T05:33:35;4.00;;;1.30;;
74064;SDS011;62421;51.412;5.432;2022-09-27T05:36:00;6.37;;;1.70;;
74064;SDS011;62421;51.412;5.432;2022-09-27T05:38:26;5.55;;;1.40;;
74064;SDS011;62421;51.412;5.432;2022-09-27T05:40:52;4.43;;;1.00;;
74064;SDS011;62421;51.412;5.432;2022-09-27T05:43:17;3.33;;;1.67;;
74064;SDS011;62421;51.412;5.432;2022-09-27T05:45:43;2.85;;;1.10;;
74064;SDS011;62421;51.412;5.432;2022-09-27T05:48:09;5.07;;;1.10;;
74064;SDS011;62421;51.412;5.432;2022-09-27T05:50:36;4.05;;;1.13;;
74064;SDS011;62421;51.412;5.432;2022-09-27T05:53:02;4.57;;;1.20;;
74064;SDS011;62421;51.412;5.432;2022-09-27T05:55:27;4.40;;;1.20;;
74064;SDS011;62421;51.412;5.432;2022-09-27T05:57:57;3.17;;;0.98;;
74064;SDS011;62421;51.412;5.432;2022-09-27T06:00:23;5.43;;;1.00;;
74064;SDS011;62421;51.412;5.432;2022-09-27T06:02:53;8.30;;;0.93;;
74064;SDS011;62421;51.412;5.432;2022-09-27T06:05:23;4.53;;;1.50;;
74064;SDS011;62421;51.412;5.432;2022-09-27T06:07:50;4.10;;;1.13;;
74064;SDS011;62421;51.412;5.432;2022-09-27T06:10:16;4.93;;;1.35;;
74064;SDS011;62421;51.412;5.432;2022-09-27T06:12:43;4.20;;;1.20;;
74064;SDS011;62421;51.412;5.432;2022-09-27T06:15:08;4.95;;;1.88;;
74064;SDS011;62421;51.412;5.432;2022-09-27T06:17:34;3.90;;;1.83;;
74064;SDS011;62421;51.412;5.432;2022-09-27T06:19:59;5.97;;;2.17;;
74064;SDS011;62421;51.412;5.432;2022-09-27T06:22:25;6.30;;;2.20;;
74064;SDS011;62421;51.412;5.432;2022-09-27T06:24:50;7.13;;;2.20;;
74064;SDS011;62421;51.412;5.432;2022-09-27T06:27:15;9.13;;;2.40;;
74064;SDS011;62421;51.412;5.432;2022-09-27T06:29:42;7.25;;;2.70;;
74064;SDS011;62421;51.412;5.432;2022-09-27T06:32:08;7.47;;;2.60;;
74064;SDS011;62421;51.412;5.432;2022-09-27T06:34:34;12.35;;;2.22;;
74064;SDS011;62421;51.412;5.432;2022-09-27T06:37:00;7.77;;;2.43;;
74064;SDS011;62421;51.412;5.432;2022-09-27T06:39:25;7.03;;;2.47;;
74064;SDS011;62421;51.412;5.432;2022-09-27T06:41:54;8.33;;;2.97;;
74064;SDS011;62421;51.412;5.432;2022-09-27T06:44:21;8.25;;;2.78;;
74064;SDS011;62421;51.412;5.432;2022-09-27T06:46:48;6.82;;;2.85;;
74064;SDS011;62421;51.412;5.432;2022-09-27T06:49:14;6.65;;;2.50;;
74064;SDS011;62421;51.412;5.432;2022-09-27T06:51:39;5.90;;;2.23;;
74064;SDS011;62421;51.412;5.432;2022-09-27T06:54:07;8.93;;;2.70;;
74064;SDS011;62421;51.412;5.432;2022-09-27T06:56:32;6.43;;;2.40;;
74064;SDS011;62421;51.412;5.432;2022-09-27T06:58:58;5.37;;;2.63;;
74064;SDS011;62421;51.412;5.432;2022-09-27T07:01:42;6.82;;;2.40;;
74064;SDS011;62421;51.412;5.432;2022-09-27T07:04:09;5.55;;;2.72;;
74064;SDS011;62421;51.412;5.432;2022-09-27T07:06:35;12.37;;;2.40;;
74064;SDS011;62421;51.412;5.432;2022-09-27T07:09:01;3.92;;;2.13;;
74064;SDS011;62421;51.412;5.432;2022-09-27T07:11:28;10.82;;;2.92;;
74064;SDS011;62421;51.412;5.432;2022-09-27T07:13:53;9.67;;;2.53;;
74064;SDS011;62421;51.412;5.432;2022-09-27T07:16:20;7.97;;;3.20;;
74064;SDS011;62421;51.412;5.432;2022-09-27T07:18:46;5.70;;;2.70;;
74064;SDS011;62421;51.412;5.432;2022-09-27T07:21:12;8.77;;;3.13;;
74064;SDS011;62421;51.412;5.432;2022-09-27T07:23:40;8.10;;;3.30;;
74064;SDS011;62421;51.412;5.432;2022-09-27T07:26:05;7.80;;;3.70;;
74064;SDS011;62421;51.412;5.432;2022-09-27T07:28:34;6.47;;;3.67;;
74064;SDS011;62421;51.412;5.432;2022-09-27T07:31:01;6.80;;;3.92;;
74064;SDS011;62421;51.412;5.432;2022-09-27T07:33:27;9.50;;;4.37;;
74064;SDS011;62421;51.412;5.432;2022-09-27T07:35:53;15.82;;;4.70;;
74064;SDS011;62421;51.412;5.432;2022-09-27T07:38:18;11.93;;;5.20;;
74064;SDS011;62421;51.412;5.432;2022-09-27T07:40:44;12.38;;;4.70;;
74064;SDS011;62421;51.412;5.432;2022-09-27T07:43:09;10.33;;;4.07;;
74064;SDS011;62421;51.412;5.432;2022-09-27T07:45:36;8.57;;;4.80;;
74064;SDS011;62421;51.412;5.432;2022-09-27T07:48:05;10.65;;;5.25;;
74064;SDS011;62421;51.412;5.432;2022-09-27T07:50:31;11.13;;;6.20;;
74064;SDS011;62421;51.412;5.432;2022-09-27T07:52:57;10.03;;;5.60;;
74064;SDS011;62421;51.412;5.432;2022-09-27T07:55:23;13.30;;;5.73;;
74064;SDS011;62421;51.412;5.432;2022-09-27T07:57:48;11.02;;;5.38;;
74064;SDS011;62421;51.412;5.432;2022-09-27T08:00:14;23.97;;;12.77;;
74064;SDS011;62421;51.412;5.432;2022-09-27T08:02:41;10.45;;;5.25;;
74064;SDS011;62421;51.412;5.432;2022-09-27T08:05:08;9.93;;;5.93;;
74064;SDS011;62421;51.412;5.432;2022-09-27T08:07:34;14.02;;;6.22;;
74064;SDS011;62421;51.412;5.432;2022-09-27T08:10:00;12.18;;;5.35;;
74064;SDS011;62421;51.412;5.432;2022-09-27T08:12:25;13.37;;;6.20;;
74064;SDS011;62421;51.412;5.432;2022-09-27T08:14:51;9.03;;;5.10;;
74064;SDS011;62421;51.412;5.432;2022-09-27T08:17:16;8.93;;;5.40;;
74064;SDS011;62421;51.412;5.432;2022-09-27T08:19:43;12.68;;;5.30;;
74064;SDS011;62421;51.412;5.432;2022-09-27T08:22:09;13.98;;;5.63;;
74064;SDS011;62421;51.412;5.432;2022-09-27T08:24:37;8.57;;;5.22;;
74064;SDS011;62421;51.412;5.432;2022-09-27T08:27:03;11.23;;;5.40;;
74064;SDS011;62421;51.412;5.432;2022-09-27T08:29:29;10.23;;;5.38;;
74064;SDS011;62421;51.412;5.432;2022-09-27T08:31:55;10.55;;;5.65;;
74064;SDS011;62421;51.412;5.432;2022-09-27T08:34:20;12.60;;;6.10;;
74064;SDS011;62421;51.412;5.432;2022-09-27T08:36:46;13.67;;;6.70;;
74064;SDS011;62421;51.412;5.432;2022-09-27T08:39:12;16.48;;;7.30;;
74064;SDS011;62421;51.412;5.432;2022-09-27T08:41:40;20.67;;;8.67;;
74064;SDS011;62421;51.412;5.432;2022-09-27T08:52:49;21.08;;;9.82;;
74064;SDS011;62421;51.412;5.432;2022-09-27T08:55:23;19.70;;;10.27;;
74064;SDS011;62421;51.412;5.432;2022-09-27T08:57:55;20.20;;;10.10;;
74064;SDS011;62421;51.412;5.432;2022-09-27T09:00:27;18.40;;;11.20;;
74064;SDS011;62421;51.412;5.432;2022-09-27T09:02:54;18.23;;;11.32;;
74064;SDS011;62421;51.412;5.432;2022-09-27T09:05:24;20.08;;;11.18;;
74064;SDS011;62421;51.412;5.432;2022-09-27T09:10:48;20.70;;;10.63;;
74064;SDS011;62421;51.412;5.432;2022-09-27T09:13:47;20.25;;;10.77;;
74064;SDS011;62421;51.412;5.432;2022-09-27T09:21:38;19.03;;;11.50;;
74064;SDS011;62421;51.412;5.432;2022-09-27T09:27:24;19.42;;;11.85;;
74064;SDS011;62421;51.412;5.432;2022-09-27T09:30:21;27.60;;;12.70;;
74064;SDS011;62421;51.412;5.432;2022-09-27T09:35:35;21.33;;;11.37;;
74064;SDS011;62421;51.412;5.432;2022-09-27T09:38:11;18.75;;;11.60;;
74064;SDS011;62421;51.412;5.432;2022-09-27T09:40:46;19.00;;;11.77;;
74064;SDS011;62421;51.412;5.432;2022-09-27T09:43:19;19.88;;;11.02;;
74064;SDS011;62421;51.412;5.432;2022-09-27T09:46:11;20.83;;;12.68;;
74064;SDS011;62421;51.412;5.432;2022-09-27T09:48:54;21.77;;;12.63;;
74064;SDS011;62421;51.412;5.432;2022-09-27T09:51:28;20.33;;;11.25;;
74064;SDS011;62421;51.412;5.432;2022-09-27T09:54:05;16.30;;;11.38;;
74064;SDS011;62421;51.412;5.432;2022-09-27T09:56:39;18.23;;;10.93;;
74064;SDS011;62421;51.412;5.432;2022-09-27T09:59:27;16.00;;;10.95;;
74064;SDS011;62421;51.412;5.432;2022-09-27T10:02:00;21.67;;;10.37;;
74064;SDS011;62421;51.412;5.432;2022-09-27T10:04:41;15.20;;;8.70;;
74064;SDS011;62421;51.412;5.432;2022-09-27T10:07:06;13.47;;;7.50;;
74064;SDS011;62421;51.412;5.432;2022-09-27T10:09:32;11.57;;;7.60;;
74064;SDS011;62421;51.412;5.432;2022-09-27T10:11:57;9.73;;;6.17;;
74064;SDS011;62421;51.412;5.432;2022-09-27T10:14:24;10.27;;;6.23;;
74064;SDS011;62421;51.412;5.432;2022-09-27T10:16:54;10.82;;;6.65;;
74064;SDS011;62421;51.412;5.432;2022-09-27T10:19:30;12.27;;;5.90;;
74064;SDS011;62421;51.412;5.432;2022-09-27T10:22:02;9.95;;;5.05;;
74064;SDS011;62421;51.412;5.432;2022-09-27T10:24:51;6.80;;;2.23;;
74064;SDS011;62421;51.412;5.432;2022-09-27T10:27:26;7.05;;;2.53;;
74064;SDS011;62421;51.412;5.432;2022-09-27T10:29:56;6.38;;;3.03;;
74064;SDS011;62421;51.412;5.432;2022-09-27T10:32:27;7.28;;;2.45;;
74064;SDS011;62421;51.412;5.432;2022-09-27T10:35:18;5.88;;;2.00;;
74064;SDS011;62421;51.412;5.432;2022-09-27T10:40:55;4.55;;;2.78;;
74064;SDS011;62421;51.412;5.432;2022-09-27T10:43:34;7.03;;;1.88;;
74064;SDS011;62421;51.412;5.432;2022-09-27T10:46:05;5.38;;;1.90;;
74064;SDS011;62421;51.412;5.432;2022-09-27T10:48:37;2.85;;;1.42;;
74064;SDS011;62421;51.412;5.432;2022-09-27T10:51:06;3.27;;;1.40;;
74064;SDS011;62421;51.412;5.432;2022-09-27T10:53:43;3.85;;;1.45;;
74064;SDS011;62421;51.412;5.432;2022-09-27T10:56:18;7.55;;;1.80;;
74064;SDS011;62421;51.412;5.432;2022-09-27T10:58:49;5.03;;;1.63;;
74064;SDS011;62421;51.412;5.432;2022-09-27T11:01:15;4.55;;;1.60;;
74064;SDS011;62421;51.412;5.432;2022-09-27T11:03:50;4.13;;;1.13;;
74064;SDS011;62421;51.412;5.432;2022-09-27T11:08:47;4.83;;;1.17;;
74064;SDS011;62421;51.412;5.432;2022-09-27T11:16:47;7.38;;;1.83;;
74064;SDS011;62421;51.412;5.432;2022-09-27T11:22:43;2.67;;;1.20;;
74064;SDS011;62421;51.412;5.432;2022-09-27T11:30:14;4.78;;;1.17;;
74064;SDS011;62421;51.412;5.432;2022-09-27T11:40:56;4.67;;;1.13;;
74064;SDS011;62421;51.412;5.432;2022-09-27T11:51:21;2.63;;;1.20;;
74064;SDS011;62421;51.412;5.432;2022-09-27T12:01:49;5.47;;;1.15;;
74064;SDS011;62421;51.412;5.432;2022-09-27T12:10:12;2.67;;;1.23;;
74064;SDS011;62421;51.412;5.432;2022-09-27T12:12:41;3.58;;;2.33;;
74064;SDS011;62421;51.412;5.432;2022-09-27T12:17:40;2.25;;;0.95;;
74064;SDS011;62421;51.412;5.432;2022-09-27T12:20:24;7.80;;;1.50;;
74064;SDS011;62421;51.412;5.432;2022-09-27T12:23:02;3.60;;;0.80;;
74064;SDS011;62421;51.412;5.432;2022-09-27T12:25:33;5.20;;;1.40;;
74064;SDS011;62421;51.412;5.432;2022-09-27T12:30:49;3.38;;;1.20;;
74064;SDS011;62421;51.412;5.432;2022-09-27T12:33:32;5.78;;;1.30;;
74064;SDS011;62421;51.412;5.432;2022-09-27T12:36:05;3.70;;;1.20;;
74064;SDS011;62421;51.412;5.432;2022-09-27T12:38:36;5.22;;;1.42;;
74064;SDS011;62421;51.412;5.432;2022-09-27T12:41:08;4.13;;;0.98;;
74064;SDS011;62421;51.412;5.432;2022-09-27T12:43:38;4.90;;;1.30;;
74064;SDS011;62421;51.412;5.432;2022-09-27T12:49:14;5.00;;;1.67;;
74064;SDS011;62421;51.412;5.432;2022-09-27T12:51:50;2.88;;;1.23;;
74064;SDS011;62421;51.412;5.432;2022-09-27T12:54:28;4.53;;;1.50;;
74064;SDS011;62421;51.412;5.432;2022-09-27T13:11:06;5.30;;;1.88;;
74064;SDS011;62421;51.412;5.432;2022-09-27T13:13:46;5.35;;;1.88;;
74064;SDS011;62421;51.412;5.432;2022-09-27T13:16:11;5.23;;;2.33;;
74064;SDS011;62421;51.412;5.432;2022-09-27T13:18:50;5.37;;;2.03;;
74064;SDS011;62421;51.412;5.432;2022-09-27T13:22:05;6.28;;;2.10;;
74064;SDS011;62421;51.412;5.432;2022-09-27T13:32:40;8.97;;;2.73;;
74064;SDS011;62421;51.412;5.432;2022-09-27T13:35:34;7.72;;;2.95;;
74064;SDS011;62421;51.412;5.432;2022-09-27T13:38:00;7.78;;;2.67;;
74064;SDS011;62421;51.412;5.432;2022-09-27T13:40:27;4.85;;;2.63;;
74064;SDS011;62421;51.412;5.432;2022-09-27T13:45:40;5.63;;;2.87;;
74064;SDS011;62421;51.412;5.432;2022-09-27T13:48:18;10.63;;;3.22;;
74064;SDS011;62421;51.412;5.432;2022-09-27T13:50:51;7.88;;;3.17;;
74064;SDS011;62421;51.412;5.432;2022-09-27T13:53:26;7.35;;;2.53;;
74064;SDS011;62421;51.412;5.432;2022-09-27T13:55:55;8.35;;;2.53;;
74064;SDS011;62421;51.412;5.432;2022-09-27T13:58:35;6.17;;;2.40;;
74064;SDS011;62421;51.412;5.432;2022-09-27T14:01:14;4.90;;;1.90;;
74064;SDS011;62421;51.412;5.432;2022-09-27T14:03:44;5.90;;;2.38;;
74064;SDS011;62421;51.412;5.432;2022-09-27T14:06:12;10.05;;;2.20;;
74064;SDS011;62421;51.412;5.432;2022-09-27T14:08:44;6.97;;;2.60;;
74064;SDS011;62421;51.412;5.432;2022-09-27T14:11:21;6.20;;;2.63;;
74064;SDS011;62421;51.412;5.432;2022-09-27T14:13:54;6.78;;;2.72;;
74064;SDS011;62421;51.412;5.432;2022-09-27T14:16:22;10.90;;;2.53;;
74064;SDS011;62421;51.412;5.432;2022-09-27T14:18:50;6.50;;;2.13;;
74064;SDS011;62421;51.412;5.432;2022-09-27T14:21:26;9.38;;;2.45;;
74064;SDS011;62421;51.412;5.432;2022-09-27T14:32:15;11.30;;;2.80;;
74064;SDS011;62421;51.412;5.432;2022-09-27T14:34:44;5.13;;;1.85;;
74064;SDS011;62421;51.412;5.432;2022-09-27T14:37:28;16.47;;;2.30;;
74064;SDS011;62421;51.412;5.432;2022-09-27T14:42:43;6.77;;;2.03;;
74064;SDS011;62421;51.412;5.432;2022-09-27T14:45:19;5.45;;;1.92;;
74064;SDS011;62421;51.412;5.432;2022-09-27T14:47:47;7.10;;;2.58;;
74064;SDS011;62421;51.412;5.432;2022-09-27T14:52:45;7.93;;;1.83;;
74064;SDS011;62421;51.412;5.432;2022-09-27T14:55:14;11.80;;;1.92;;
74064;SDS011;62421;51.412;5.432;2022-09-27T14:57:55;2.78;;;1.17;;
74064;SDS011;62421;51.412;5.432;2022-09-27T15:00:27;4.85;;;1.45;;
74064;SDS011;62421;51.412;5.432;2022-09-27T15:02:57;6.60;;;1.63;;
74064;SDS011;62421;51.412;5.432;2022-09-27T15:05:26;4.57;;;1.38;;
74064;SDS011;62421;51.412;5.432;2022-09-27T15:07:52;10.38;;;2.05;;
74064;SDS011;62421;51.412;5.432;2022-09-27T15:10:22;8.20;;;1.63;;
74064;SDS011;62421;51.412;5.432;2022-09-27T15:12:55;6.00;;;1.58;;
74064;SDS011;62421;51.412;5.432;2022-09-27T15:15:25;5.00;;;1.33;;
74064;SDS011;62421;51.412;5.432;2022-09-27T15:17:57;7.88;;;1.65;;
74064;SDS011;62421;51.412;5.432;2022-09-27T15:20:28;6.72;;;2.00;;
74064;SDS011;62421;51.412;5.432;2022-09-27T15:22:59;7.20;;;1.85;;
74064;SDS011;62421;51.412;5.432;2022-09-27T15:25:35;9.63;;;2.13;;
74064;SDS011;62421;51.412;5.432;2022-09-27T15:30:38;4.45;;;1.83;;
74064;SDS011;62421;51.412;5.432;2022-09-27T15:33:19;6.55;;;1.83;;
74064;SDS011;62421;51.412;5.432;2022-09-27T15:35:50;7.95;;;2.10;;
74064;SDS011;62421;51.412;5.432;2022-09-27T15:38:28;5.88;;;2.05;;
74064;SDS011;62421;51.412;5.432;2022-09-27T15:41:04;8.07;;;2.03;;
74064;SDS011;62421;51.412;5.432;2022-09-27T15:43:32;11.02;;;2.35;;
74064;SDS011;62421;51.412;5.432;2022-09-27T15:46:02;9.43;;;2.35;;
74064;SDS011;62421;51.412;5.432;2022-09-27T15:48:30;6.43;;;1.80;;
74064;SDS011;62421;51.412;5.432;2022-09-27T15:50:57;7.03;;;2.15;;
74064;SDS011;62421;51.412;5.432;2022-09-27T15:56:01;6.50;;;1.98;;
74064;SDS011;62421;51.412;5.432;2022-09-27T15:58:27;7.03;;;2.05;;
74064;SDS011;62421;51.412;5.432;2022-09-27T16:00:54;5.13;;;1.53;;
74064;SDS011;62421;51.412;5.432;2022-09-27T16:03:20;6.45;;;2.10;;
74064;SDS011;62421;51.412;5.432;2022-09-27T16:05:47;4.80;;;2.03;;
74064;SDS011;62421;51.412;5.432;2022-09-27T16:08:12;7.43;;;2.00;;
74064;SDS011;62421;51.412;5.432;2022-09-27T16:10:38;6.40;;;1.70;;
74064;SDS011;62421;51.412;5.432;2022-09-27T16:13:07;3.80;;;1.30;;
74064;SDS011;62421;51.412;5.432;2022-09-27T16:15:32;7.80;;;1.77;;
74064;SDS011;62421;51.412;5.432;2022-09-27T16:17:58;3.53;;;1.77;;
74064;SDS011;62421;51.412;5.432;2022-09-27T16:20:24;3.88;;;1.63;;
74064;SDS011;62421;51.412;5.432;2022-09-27T16:22:54;6.10;;;1.90;;
74064;SDS011;62421;51.412;5.432;2022-09-27T16:25:21;8.00;;;1.92;;
74064;SDS011;62421;51.412;5.432;2022-09-27T16:27:47;6.82;;;2.40;;
74064;SDS011;62421;51.412;5.432;2022-09-27T16:30:13;5.65;;;2.00;;
74064;SDS011;62421;51.412;5.432;2022-09-27T16:32:42;7.95;;;1.92;;
74064;SDS011;62421;51.412;5.432;2022-09-27T16:35:10;7.77;;;1.80;;
74064;SDS011;62421;51.412;5.432;2022-09-27T16:37:37;7.35;;;1.88;;
74064;SDS011;62421;51.412;5.432;2022-09-27T16:40:03;18.60;;;4.07;;
74064;SDS011;62421;51.412;5.432;2022-09-27T16:42:30;5.00;;;1.80;;
74064;SDS011;62421;51.412;5.432;2022-09-27T16:44:56;4.30;;;1.50;;
74064;SDS011;62421;51.412;5.432;2022-09-27T16:47:21;7.67;;;2.00;;
74064;SDS011;62421;51.412;5.432;2022-09-27T16:49:47;3.33;;;1.87;;
74064;SDS011;62421;51.412;5.432;2022-09-27T16:52:31;6.65;;;2.30;;
74064;SDS011;62421;51.412;5.432;2022-09-27T16:54:57;4.50;;;1.90;;
74064;SDS011;62421;51.412;5.432;2022-09-27T16:57:23;3.97;;;1.60;;
74064;SDS011;62421;51.412;5.432;2022-09-27T16:59:48;8.77;;;2.20;;
74064;SDS011;62421;51.412;5.432;2022-09-27T17:02:14;4.60;;;2.07;;
74064;SDS011;62421;51.412;5.432;2022-09-27T17:04:39;10.13;;;2.80;;
74064;SDS011;62421;51.412;5.432;2022-09-27T17:07:05;3.65;;;1.50;;
74064;SDS011;62421;51.412;5.432;2022-09-27T17:09:30;5.37;;;2.30;;
74064;SDS011;62421;51.412;5.432;2022-09-27T17:11:56;5.50;;;1.95;;
74064;SDS011;62421;51.412;5.432;2022-09-27T17:14:21;8.40;;;2.20;;
74064;SDS011;62421;51.412;5.432;2022-09-27T17:16:47;10.07;;;4.20;;
74064;SDS011;62421;51.412;5.432;2022-09-27T17:19:13;4.63;;;1.80;;
74064;SDS011;62421;51.412;5.432;2022-09-27T17:21:40;4.78;;;1.95;;
74064;SDS011;62421;51.412;5.432;2022-09-27T17:24:07;4.57;;;1.60;;
74064;SDS011;62421;51.412;5.432;2022-09-27T17:26:33;9.57;;;1.95;;
74064;SDS011;62421;51.412;5.432;2022-09-27T17:28:59;10.00;;;2.17;;
74064;SDS011;62421;51.412;5.432;2022-09-27T17:31:25;7.53;;;1.40;;
74064;SDS011;62421;51.412;5.432;2022-09-27T17:33:52;7.07;;;1.88;;
74064;SDS011;62421;51.412;5.432;2022-09-27T17:36:19;6.20;;;2.00;;
74064;SDS011;62421;51.412;5.432;2022-09-27T17:38:46;6.80;;;2.00;;
74064;SDS011;62421;51.412;5.432;2022-09-27T17:41:14;6.30;;;2.20;;
74064;SDS011;62421;51.412;5.432;2022-09-27T17:43:42;10.63;;;1.70;;